sensor_id;sensor_type;location;lat;lon;timestamp;pressure;altitude;pressure_sealevel;temperature;humidity
12594;BME280;6362;50.208;9.182;2023-02-04T00:00:12;101072.13;;;6.27;69.50
12594;BME280;6362;50.208;9.182;2023-02-04T00:02:39;101072.94;;;6.24;69.53
12594;BME280;6362;50.208;9.182;2023-02-04T00:05:05;101065.16;;;6.23;70.11
12594;BME280;6362;50.208;9.182;2023-02-04T00:07:31;101071.94;;;6.19;69.82
12594;BME280;6362;50.208;9.182;2023-02-04T00:09:56;101076.25;;;6.20;69.74
12594;BME280;6362;50.208;9.182;2023-02-04T00:12:21;101083.94;;;6.17;69.44
12594;BME280;6362;50.208;9.182;2023-02-04T00:14:47;101089.03;;;6.16;69.91
12594;BME280;6362;50.208;9.182;2023-02-04T00:17:12;101096.84;;;6.17;70.17
12594;BME280;6362;50.208;9.182;2023-02-04T00:19:39;101106.16;;;6.12;69.81
12594;BME280;6362;50.208;9.182;2023-02-04T00:22:04;101113.94;;;6.14;69.45
12594;BME280;6362;50.208;9.182;2023-02-04T00:24:32;101106.16;;;6.12;69.46
12594;BME280;6362;50.208;9.182;2023-02-04T00:26:58;101123.41;;;6.13;69.93
12594;BME280;6362;50.208;9.182;2023-02-04T00:29:23;101103.59;;;6.12;69.60
12594;BME280;6362;50.208;9.182;2023-02-04T00:31:48;101102.78;;;6.15;69.34
12594;BME280;6362;50.208;9.182;2023-02-04T00:34:14;101106.25;;;6.15;69.39
12594;BME280;6362;50.208;9.182;2023-02-04T00:36:39;101106.34;;;6.18;69.42
12594;BME280;6362;50.208;9.182;2023-02-04T00:39:05;101106.50;;;6.23;69.69
12594;BME280;6362;50.208;9.182;2023-02-04T00:41:30;101109.69;;;6.16;69.37
12594;BME280;6362;50.208;9.182;2023-02-04T00:43:55;101108.81;;;6.15;69.78
12594;BME280;6362;50.208;9.182;2023-02-04T00:46:21;101113.22;;;6.18;69.07
12594;BME280;6362;50.208;9.182;2023-02-04T00:48:46;101106.03;;;6.07;69.53
12594;BME280;6362;50.208;9.182;2023-02-04T00:51:11;101112.75;;;6.02;69.77
12594;BME280;6362;50.208;9.182;2023-02-04T00:53:37;101124.66;;;5.97;69.81
12594;BME280;6362;50.208;9.182;2023-02-04T00:56:02;101126.25;;;5.94;70.22
12594;BME280;6362;50.208;9.182;2023-02-04T00:58:28;101122.50;;;5.84;70.50
12594;BME280;6362;50.208;9.182;2023-02-04T01:00:53;101125.84;;;5.81;70.65
12594;BME280;6362;50.208;9.182;2023-02-04T01:03:19;101134.41;;;5.79;70.42
12594;BME280;6362;50.208;9.182;2023-02-04T01:05:44;101128.44;;;5.81;70.22
12594;BME280;6362;50.208;9.182;2023-02-04T01:08:10;101137.59;;;5.72;70.31
12594;BME280;6362;50.208;9.182;2023-02-04T01:10:35;101151.28;;;5.69;70.65
12594;BME280;6362;50.208;9.182;2023-02-04T01:13:01;101153.88;;;5.69;70.81
12594;BME280;6362;50.208;9.182;2023-02-04T01:15:26;101168.28;;;5.63;70.70
12594;BME280;6362;50.208;9.182;2023-02-04T01:17:52;101165.00;;;5.67;70.69
12594;BME280;6362;50.208;9.182;2023-02-04T01:20:18;101165.06;;;5.70;70.90
12594;BME280;6362;50.208;9.182;2023-02-04T01:22:43;101175.25;;;5.65;71.14
12594;BME280;6362;50.208;9.182;2023-02-04T01:25:08;101172.50;;;5.61;71.37
12594;BME280;6362;50.208;9.182;2023-02-04T01:27:34;101168.09;;;5.56;71.56
12594;BME280;6362;50.208;9.182;2023-02-04T01:29:59;101181.75;;;5.54;71.33
12594;BME280;6362;50.208;9.182;2023-02-04T01:32:25;101180.63;;;5.46;71.37
12594;BME280;6362;50.208;9.182;2023-02-04T01:34:50;101182.22;;;5.42;71.36
12594;BME280;6362;50.208;9.182;2023-02-04T01:37:16;101182.06;;;5.38;72.04
12594;BME280;6362;50.208;9.182;2023-02-04T01:39:42;101186.09;;;5.29;72.70
12594;BME280;6362;50.208;9.182;2023-02-04T01:42:08;101186.78;;;5.24;72.73
12594;BME280;6362;50.208;9.182;2023-02-04T01:44:33;101197.63;;;5.15;73.20
12594;BME280;6362;50.208;9.182;2023-02-04T01:46:59;101197.38;;;5.08;73.30
12594;BME280;6362;50.208;9.182;2023-02-04T01:49:24;101201.06;;;4.90;73.81
12594;BME280;6362;50.208;9.182;2023-02-04T01:51:50;101191.59;;;4.89;73.86
12594;BME280;6362;50.208;9.182;2023-02-04T01:54:16;101188.00;;;4.86;73.89
12594;BME280;6362;50.208;9.182;2023-02-04T01:56:45;101187.84;;;4.81;73.71
12594;BME280;6362;50.208;9.182;2023-02-04T01:59:13;101196.78;;;4.67;74.06
12594;BME280;6362;50.208;9.182;2023-02-04T02:01:44;101203.25;;;4.56;74.27
12594;BME280;6362;50.208;9.182;2023-02-04T02:04:12;101204.88;;;4.54;74.59
12594;BME280;6362;50.208;9.182;2023-02-04T02:06:44;101203.50;;;4.39;74.98
12594;BME280;6362;50.208;9.182;2023-02-04T02:09:09;101204.88;;;4.31;75.77
12594;BME280;6362;50.208;9.182;2023-02-04T02:11:35;101208.38;;;4.11;77.02
12594;BME280;6362;50.208;9.182;2023-02-04T02:14:02;101220.97;;;4.03;76.60
12594;BME280;6362;50.208;9.182;2023-02-04T02:16:28;101223.06;;;3.91;77.50
12594;BME280;6362;50.208;9.182;2023-02-04T02:18:53;101231.34;;;3.84;77.15
12594;BME280;6362;50.208;9.182;2023-02-04T02:21:29;101230.38;;;3.82;77.45
12594;BME280;6362;50.208;9.182;2023-02-04T02:23:56;101238.69;;;3.75;77.88
12594;BME280;6362;50.208;9.182;2023-02-04T02:26:22;101244.50;;;3.70;78.02
12594;BME280;6362;50.208;9.182;2023-02-04T02:28:49;101244.59;;;3.72;78.58
12594;BME280;6362;50.208;9.182;2023-02-04T02:31:16;101237.63;;;3.69;78.82
12594;BME280;6362;50.208;9.182;2023-02-04T02:33:43;101241.06;;;3.70;79.02
12594;BME280;6362;50.208;9.182;2023-02-04T02:36:09;101238.69;;;3.75;79.13
12594;BME280;6362;50.208;9.182;2023-02-04T02:38:35;101232.66;;;3.74;78.99
12594;BME280;6362;50.208;9.182;2023-02-04T02:41:01;101238.81;;;3.78;78.73
12594;BME280;6362;50.208;9.182;2023-02-04T02:43:27;101243.06;;;3.77;78.89
12594;BME280;6362;50.208;9.182;2023-02-04T02:45:54;101247.09;;;3.91;77.31
12594;BME280;6362;50.208;9.182;2023-02-04T02:48:21;101255.69;;;3.92;78.08
12594;BME280;6362;50.208;9.182;2023-02-04T02:50:47;101261.91;;;3.97;76.94
12594;BME280;6362;50.208;9.182;2023-02-04T02:53:14;101247.53;;;4.02;76.44
12594;BME280;6362;50.208;9.182;2023-02-04T02:55:41;101257.19;;;4.08;75.91
12594;BME280;6362;50.208;9.182;2023-02-04T03:00:43;101256.56;;;4.13;75.17
12594;BME280;6362;50.208;9.182;2023-02-04T03:03:12;101264.94;;;4.30;74.78
12594;BME280;6362;50.208;9.182;2023-02-04T03:05:42;101258.91;;;4.30;74.59
12594;BME280;6362;50.208;9.182;2023-02-04T03:08:10;101267.22;;;4.22;74.73
12594;BME280;6362;50.208;9.182;2023-02-04T03:10:37;101267.03;;;4.18;75.13
12594;BME280;6362;50.208;9.182;2023-02-04T03:13:03;101269.44;;;4.13;75.53
12594;BME280;6362;50.208;9.182;2023-02-04T03:15:30;101266.59;;;4.07;76.58
12594;BME280;6362;50.208;9.182;2023-02-04T03:17:56;101273.38;;;4.05;76.82
12594;BME280;6362;50.208;9.182;2023-02-04T03:20:26;101273.06;;;3.97;77.11
12594;BME280;6362;50.208;9.182;2023-02-04T03:22:54;101280.69;;;3.94;76.97
12594;BME280;6362;50.208;9.182;2023-02-04T03:25:21;101284.88;;;3.92;77.47
12594;BME280;6362;50.208;9.182;2023-02-04T03:27:50;101285.69;;;3.91;77.05
12594;BME280;6362;50.208;9.182;2023-02-04T03:30:16;101293.84;;;4.02;77.05
12594;BME280;6362;50.208;9.182;2023-02-04T03:32:41;101292.88;;;4.21;75.42
12594;BME280;6362;50.208;9.182;2023-02-04T03:35:07;101295.38;;;4.40;74.79
12594;BME280;6362;50.208;9.182;2023-02-04T03:37:32;101295.09;;;4.55;73.71
12594;BME280;6362;50.208;9.182;2023-02-04T03:39:58;101305.88;;;4.45;73.31
12594;BME280;6362;50.208;9.182;2023-02-04T03:42:23;101308.66;;;4.29;74.09
12594;BME280;6362;50.208;9.182;2023-02-04T03:44:49;101314.69;;;4.29;74.91
12594;BME280;6362;50.208;9.182;2023-02-04T03:47:15;101319.78;;;4.28;74.87
12594;BME280;6362;50.208;9.182;2023-02-04T03:49:40;101324.75;;;4.23;75.26
12594;BME280;6362;50.208;9.182;2023-02-04T03:52:06;101323.59;;;4.16;75.99
12594;BME280;6362;50.208;9.182;2023-02-04T03:54:31;101327.72;;;4.11;76.52
12594;BME280;6362;50.208;9.182;2023-02-04T03:56:56;101338.34;;;4.00;77.53
12594;BME280;6362;50.208;9.182;2023-02-04T03:59:22;101335.78;;;4.00;77.11
12594;BME280;6362;50.208;9.182;2023-02-04T04:01:47;101338.09;;;3.93;77.57
12594;BME280;6362;50.208;9.182;2023-02-04T04:04:13;101337.16;;;3.91;77.75
12594;BME280;6362;50.208;9.182;2023-02-04T04:06:39;101336.16;;;3.88;77.66
12594;BME280;6362;50.208;9.182;2023-02-04T04:09:04;101348.84;;;3.83;77.98
12594;BME280;6362;50.208;9.182;2023-02-04T04:11:30;101341.81;;;3.79;77.70
12594;BME280;6362;50.208;9.182;2023-02-04T04:13:55;101346.81;;;3.76;78.07
12594;BME280;6362;50.208;9.182;2023-02-04T04:16:21;101342.28;;;3.70;78.03
12594;BME280;6362;50.208;9.182;2023-02-04T04:18:46;101346.28;;;3.64;78.90
12594;BME280;6362;50.208;9.182;2023-02-04T04:21:12;101346.84;;;3.57;78.96
12594;BME280;6362;50.208;9.182;2023-02-04T04:23:37;101360.22;;;3.50;79.14
12594;BME280;6362;50.208;9.182;2023-02-04T04:26:03;101367.66;;;3.43;79.48
12594;BME280;6362;50.208;9.182;2023-02-04T04:28:28;101358.81;;;3.37;79.52
12594;BME280;6362;50.208;9.182;2023-02-04T04:30:54;101374.84;;;3.31;80.22
12594;BME280;6362;50.208;9.182;2023-02-04T04:33:19;101362.88;;;3.32;80.02
12594;BME280;6362;50.208;9.182;2023-02-04T04:35:45;101369.50;;;3.27;80.16
12594;BME280;6362;50.208;9.182;2023-02-04T04:38:10;101373.03;;;3.29;79.91
12594;BME280;6362;50.208;9.182;2023-02-04T04:40:36;101362.38;;;3.21;80.00
12594;BME280;6362;50.208;9.182;2023-02-04T04:43:02;101363.19;;;3.20;79.64
12594;BME280;6362;50.208;9.182;2023-02-04T04:45:27;101368.28;;;3.18;80.52
12594;BME280;6362;50.208;9.182;2023-02-04T04:47:52;101373.38;;;3.17;80.65
12594;BME280;6362;50.208;9.182;2023-02-04T04:50:18;101374.84;;;3.12;80.32
12594;BME280;6362;50.208;9.182;2023-02-04T04:52:43;101387.47;;;3.07;80.62
12594;BME280;6362;50.208;9.182;2023-02-04T04:55:09;101386.28;;;3.18;80.68
12594;BME280;6362;50.208;9.182;2023-02-04T04:57:35;101394.44;;;3.10;80.79
12594;BME280;6362;50.208;9.182;2023-02-04T05:00:00;101384.84;;;3.06;80.04
12594;BME280;6362;50.208;9.182;2023-02-04T05:02:25;101386.59;;;3.07;79.75
12594;BME280;6362;50.208;9.182;2023-02-04T05:04:51;101396.00;;;3.06;80.22
12594;BME280;6362;50.208;9.182;2023-02-04T05:07:17;101389.88;;;3.04;80.41
12594;BME280;6362;50.208;9.182;2023-02-04T05:09:42;101405.09;;;3.00;80.45
12594;BME280;6362;50.208;9.182;2023-02-04T05:12:07;101411.16;;;3.00;80.37
12594;BME280;6362;50.208;9.182;2023-02-04T05:14:33;101413.56;;;2.97;80.57
12594;BME280;6362;50.208;9.182;2023-02-04T05:16:58;101415.25;;;2.97;80.41
12594;BME280;6362;50.208;9.182;2023-02-04T05:19:24;101416.13;;;2.97;80.91
12594;BME280;6362;50.208;9.182;2023-02-04T05:21:49;101423.69;;;2.94;80.91
12594;BME280;6362;50.208;9.182;2023-02-04T05:24:15;101422.06;;;2.96;80.62
12594;BME280;6362;50.208;9.182;2023-02-04T05:26:40;101423.84;;;2.97;80.92
12594;BME280;6362;50.208;9.182;2023-02-04T05:29:05;101426.47;;;2.99;80.90
12594;BME280;6362;50.208;9.182;2023-02-04T05:31:31;101426.47;;;2.99;81.20
12594;BME280;6362;50.208;9.182;2023-02-04T05:33:56;101429.78;;;2.96;80.97
12594;BME280;6362;50.208;9.182;2023-02-04T05:36:22;101419.72;;;3.01;80.86
12594;BME280;6362;50.208;9.182;2023-02-04T05:38:47;101425.00;;;3.04;80.93
12594;BME280;6362;50.208;9.182;2023-02-04T05:41:13;101437.56;;;2.98;80.53
12594;BME280;6362;50.208;9.182;2023-02-04T05:43:38;101440.28;;;3.01;80.53
12594;BME280;6362;50.208;9.182;2023-02-04T05:46:04;101440.47;;;3.05;80.97
12594;BME280;6362;50.208;9.182;2023-02-04T05:48:29;101445.56;;;3.04;80.28
12594;BME280;6362;50.208;9.182;2023-02-04T05:50:55;101443.44;;;3.13;80.29
12594;BME280;6362;50.208;9.182;2023-02-04T05:53:20;101443.22;;;3.08;80.78
12594;BME280;6362;50.208;9.182;2023-02-04T05:55:46;101440.84;;;3.13;80.13
12594;BME280;6362;50.208;9.182;2023-02-04T05:58:11;101439.97;;;3.12;80.48
12594;BME280;6362;50.208;9.182;2023-02-04T06:00:37;101445.34;;;3.17;80.12
12594;BME280;6362;50.208;9.182;2023-02-04T06:03:03;101452.25;;;3.18;80.40
12594;BME280;6362;50.208;9.182;2023-02-04T06:05:28;101450.66;;;3.22;79.94
12594;BME280;6362;50.208;9.182;2023-02-04T06:07:53;101455.22;;;3.27;79.65
12594;BME280;6362;50.208;9.182;2023-02-04T06:10:19;101458.09;;;3.33;79.56
12594;BME280;6362;50.208;9.182;2023-02-04T06:12:46;101453.91;;;3.35;79.58
12594;BME280;6362;50.208;9.182;2023-02-04T06:15:11;101446.25;;;3.37;79.59
12594;BME280;6362;50.208;9.182;2023-02-04T06:17:37;101447.13;;;3.37;79.85
12594;BME280;6362;50.208;9.182;2023-02-04T06:20:04;101443.72;;;3.38;79.43
12594;BME280;6362;50.208;9.182;2023-02-04T06:22:31;101460.94;;;3.39;79.59
12594;BME280;6362;50.208;9.182;2023-02-04T06:24:57;101468.50;;;3.36;79.25
12594;BME280;6362;50.208;9.182;2023-02-04T06:27:23;101470.94;;;3.33;79.79
12594;BME280;6362;50.208;9.182;2023-02-04T06:29:50;101474.25;;;3.31;79.49
12594;BME280;6362;50.208;9.182;2023-02-04T06:32:16;101481.03;;;3.29;79.40
12594;BME280;6362;50.208;9.182;2023-02-04T06:34:41;101481.16;;;3.32;78.71
12594;BME280;6362;50.208;9.182;2023-02-04T06:37:07;101480.25;;;3.31;78.48
12594;BME280;6362;50.208;9.182;2023-02-04T06:39:32;101474.41;;;3.34;79.06
12594;BME280;6362;50.208;9.182;2023-02-04T06:41:58;101470.78;;;3.30;79.10
12594;BME280;6362;50.208;9.182;2023-02-04T06:44:23;101476.75;;;3.29;79.17
12594;BME280;6362;50.208;9.182;2023-02-04T06:46:49;101481.63;;;3.23;79.82
12594;BME280;6362;50.208;9.182;2023-02-04T06:49:14;101480.56;;;3.20;79.95
12594;BME280;6362;50.208;9.182;2023-02-04T06:51:40;101479.63;;;3.17;79.92
12594;BME280;6362;50.208;9.182;2023-02-04T06:54:05;101484.63;;;3.14;80.14
12594;BME280;6362;50.208;9.182;2023-02-04T06:56:31;101485.44;;;3.13;80.75
12594;BME280;6362;50.208;9.182;2023-02-04T06:58:57;101486.25;;;3.12;79.73
12594;BME280;6362;50.208;9.182;2023-02-04T07:01:22;101493.13;;;3.13;80.28
12594;BME280;6362;50.208;9.182;2023-02-04T07:03:47;101501.78;;;3.15;80.33
12594;BME280;6362;50.208;9.182;2023-02-04T07:06:13;101496.88;;;3.20;80.48
12594;BME280;6362;50.208;9.182;2023-02-04T07:08:38;101503.19;;;3.44;84.78
12594;BME280;6362;50.208;9.182;2023-02-04T07:11:04;101510.00;;;3.62;84.46
12594;BME280;6362;50.208;9.182;2023-02-04T07:13:29;101515.94;;;4.38;80.70
12594;BME280;6362;50.208;9.182;2023-02-04T07:15:55;101519.63;;;4.24;79.27
12594;BME280;6362;50.208;9.182;2023-02-04T07:18:20;101520.09;;;4.15;79.43
12594;BME280;6362;50.208;9.182;2023-02-04T07:20:49;101530.03;;;4.27;78.72
12594;BME280;6362;50.208;9.182;2023-02-04T07:23:14;101543.41;;;4.18;78.65
12594;BME280;6362;50.208;9.182;2023-02-04T07:25:40;101548.28;;;4.12;77.92
12594;BME280;6362;50.208;9.182;2023-02-04T07:28:05;101547.94;;;4.05;76.99
12594;BME280;6362;50.208;9.182;2023-02-04T07:30:31;101550.31;;;4.00;76.45
12594;BME280;6362;50.208;9.182;2023-02-04T07:32:57;101559.81;;;4.01;76.31
12594;BME280;6362;50.208;9.182;2023-02-04T07:35:22;101557.13;;;4.00;75.67
12594;BME280;6362;50.208;9.182;2023-02-04T07:37:48;101563.09;;;3.98;75.36
12594;BME280;6362;50.208;9.182;2023-02-04T07:40:14;101567.59;;;4.03;75.96
12594;BME280;6362;50.208;9.182;2023-02-04T07:42:40;101574.50;;;4.04;75.58
12594;BME280;6362;50.208;9.182;2023-02-04T07:45:05;101573.63;;;4.03;75.71
12594;BME280;6362;50.208;9.182;2023-02-04T07:47:31;101574.50;;;4.04;75.50
12594;BME280;6362;50.208;9.182;2023-02-04T07:49:57;101584.94;;;4.07;74.80
12594;BME280;6362;50.208;9.182;2023-02-04T07:52:25;101587.78;;;4.13;74.83
12594;BME280;6362;50.208;9.182;2023-02-04T07:54:51;101592.88;;;4.11;74.71
12594;BME280;6362;50.208;9.182;2023-02-04T07:57:17;101593.06;;;4.16;74.60
12594;BME280;6362;50.208;9.182;2023-02-04T07:59:43;101593.22;;;4.19;74.26
12594;BME280;6362;50.208;9.182;2023-02-04T08:02:09;101594.16;;;4.21;73.97
12594;BME280;6362;50.208;9.182;2023-02-04T08:04:35;101604.06;;;4.12;74.77
12594;BME280;6362;50.208;9.182;2023-02-04T08:07:02;101606.34;;;4.06;75.38
12594;BME280;6362;50.208;9.182;2023-02-04T08:09:27;101608.03;;;4.05;75.46
12594;BME280;6362;50.208;9.182;2023-02-04T08:11:53;101605.38;;;4.04;75.68
12594;BME280;6362;50.208;9.182;2023-02-04T08:14:18;101611.56;;;4.07;76.02
12594;BME280;6362;50.208;9.182;2023-02-04T08:16:44;101619.22;;;4.06;75.92
12594;BME280;6362;50.208;9.182;2023-02-04T08:19:09;101623.69;;;4.10;76.04
12594;BME280;6362;50.208;9.182;2023-02-04T08:21:35;101624.56;;;4.10;76.23
12594;BME280;6362;50.208;9.182;2023-02-04T08:24:00;101621.00;;;4.07;76.44
12594;BME280;6362;50.208;9.182;2023-02-04T08:26:26;101627.91;;;4.08;75.77
12594;BME280;6362;50.208;9.182;2023-02-04T08:28:51;101631.13;;;4.04;75.97
12594;BME280;6362;50.208;9.182;2023-02-04T08:31:17;101639.81;;;4.06;76.10
12594;BME280;6362;50.208;9.182;2023-02-04T08:33:42;101652.88;;;4.10;76.40
12594;BME280;6362;50.208;9.182;2023-02-04T08:36:08;101649.72;;;4.16;76.45
12594;BME280;6362;50.208;9.182;2023-02-04T08:38:33;101654.13;;;4.18;76.49
12594;BME280;6362;50.208;9.182;2023-02-04T08:40:59;101659.41;;;4.21;76.68
12594;BME280;6362;50.208;9.182;2023-02-04T08:43:25;101655.34;;;4.27;76.85
12594;BME280;6362;50.208;9.182;2023-02-04T08:45:51;101654.91;;;4.35;75.61
12594;BME280;6362;50.208;9.182;2023-02-04T08:48:17;101663.84;;;4.43;75.21
12594;BME280;6362;50.208;9.182;2023-02-04T08:50:42;101660.94;;;4.36;75.26
12594;BME280;6362;50.208;9.182;2023-02-04T08:53:08;101674.63;;;4.35;75.63
12594;BME280;6362;50.208;9.182;2023-02-04T08:55:34;101687.13;;;4.27;76.13
12594;BME280;6362;50.208;9.182;2023-02-04T08:58:00;101687.28;;;4.30;75.91
12594;BME280;6362;50.208;9.182;2023-02-04T09:00:27;101682.97;;;4.29;75.85
12594;BME280;6362;50.208;9.182;2023-02-04T09:02:52;101684.78;;;4.32;75.77
12594;BME280;6362;50.208;9.182;2023-02-04T09:05:18;101686.63;;;4.34;76.36
12594;BME280;6362;50.208;9.182;2023-02-04T09:07:43;101691.25;;;4.41;76.72
12594;BME280;6362;50.208;9.182;2023-02-04T09:10:09;101690.19;;;4.56;76.98
12594;BME280;6362;50.208;9.182;2023-02-04T09:12:34;101695.00;;;4.67;76.64
12594;BME280;6362;50.208;9.182;2023-02-04T09:15:00;101688.75;;;4.82;76.40
12594;BME280;6362;50.208;9.182;2023-02-04T09:17:25;101693.16;;;4.84;74.51
12594;BME280;6362;50.208;9.182;2023-02-04T09:19:51;101686.06;;;4.99;74.63
12594;BME280;6362;50.208;9.182;2023-02-04T09:22:16;101699.16;;;5.04;74.53
12594;BME280;6362;50.208;9.182;2023-02-04T09:24:41;101701.91;;;5.07;74.38
12594;BME280;6362;50.208;9.182;2023-02-04T09:27:07;101715.88;;;5.12;73.56
12594;BME280;6362;50.208;9.182;2023-02-04T09:29:32;101707.72;;;5.22;73.38
12594;BME280;6362;50.208;9.182;2023-02-04T09:31:58;101708.66;;;5.24;72.04
12594;BME280;6362;50.208;9.182;2023-02-04T09:34:23;101708.78;;;5.48;70.65
12594;BME280;6362;50.208;9.182;2023-02-04T09:36:49;101720.25;;;5.55;70.37
12594;BME280;6362;50.208;9.182;2023-02-04T09:39:14;101714.34;;;5.57;70.62
12594;BME280;6362;50.208;9.182;2023-02-04T09:41:40;101724.88;;;5.62;70.99
12594;BME280;6362;50.208;9.182;2023-02-04T09:44:17;101726.09;;;5.72;70.64
12594;BME280;6362;50.208;9.182;2023-02-04T09:46:49;101721.28;;;5.79;68.89
12594;BME280;6362;50.208;9.182;2023-02-04T09:49:15;101717.56;;;5.73;68.94
12594;BME280;6362;50.208;9.182;2023-02-04T09:51:40;101732.66;;;5.64;69.39
12594;BME280;6362;50.208;9.182;2023-02-04T09:54:11;101726.47;;;5.81;70.15
12594;BME280;6362;50.208;9.182;2023-02-04T09:56:37;101726.31;;;5.97;69.95
12594;BME280;6362;50.208;9.182;2023-02-04T09:59:09;101744.91;;;6.32;69.97
12594;BME280;6362;50.208;9.182;2023-02-04T10:01:35;101743.91;;;6.51;69.15
12594;BME280;6362;50.208;9.182;2023-02-04T10:04:02;101743.03;;;6.73;68.19
12594;BME280;6362;50.208;9.182;2023-02-04T10:06:28;101747.81;;;7.34;65.76
12594;BME280;6362;50.208;9.182;2023-02-04T10:08:54;101746.41;;;7.94;64.07
12594;BME280;6362;50.208;9.182;2023-02-04T10:11:21;101744.00;;;8.28;63.42
12594;BME280;6362;50.208;9.182;2023-02-04T10:13:51;101753.13;;;9.02;59.79
12594;BME280;6362;50.208;9.182;2023-02-04T10:16:30;101757.13;;;8.91;58.80
12594;BME280;6362;50.208;9.182;2023-02-04T10:19:01;101750.25;;;8.63;59.36
12594;BME280;6362;50.208;9.182;2023-02-04T10:23:58;101752.91;;;8.10;61.47
12594;BME280;6362;50.208;9.182;2023-02-04T10:26:27;101764.22;;;7.85;61.45
12594;BME280;6362;50.208;9.182;2023-02-04T10:28:58;101761.22;;;7.48;61.87
12594;BME280;6362;50.208;9.182;2023-02-04T10:31:35;101767.78;;;7.38;61.76
12594;BME280;6362;50.208;9.182;2023-02-04T10:36:39;101764.31;;;7.37;62.99
12594;BME280;6362;50.208;9.182;2023-02-04T10:39:26;101765.94;;;7.34;64.23
12594;BME280;6362;50.208;9.182;2023-02-04T10:41:54;101760.09;;;7.39;64.36
12594;BME280;6362;50.208;9.182;2023-02-04T10:44:29;101762.00;;;7.45;63.82
12594;BME280;6362;50.208;9.182;2023-02-04T10:47:01;101757.00;;;7.50;63.44
12594;BME280;6362;50.208;9.182;2023-02-04T10:49:28;101769.03;;;7.75;61.82
12594;BME280;6362;50.208;9.182;2023-02-04T10:51:53;101762.63;;;7.63;61.60
12594;BME280;6362;50.208;9.182;2023-02-04T10:54:23;101761.59;;;7.58;62.89
12594;BME280;6362;50.208;9.182;2023-02-04T10:57:17;101770.28;;;7.35;63.48
12594;BME280;6362;50.208;9.182;2023-02-04T10:59:44;101771.66;;;7.25;64.15
12594;BME280;6362;50.208;9.182;2023-02-04T11:04:57;101763.00;;;7.25;63.33
12594;BME280;6362;50.208;9.182;2023-02-04T11:07:23;101771.97;;;7.10;64.27
12594;BME280;6362;50.208;9.182;2023-02-04T11:09:49;101765.25;;;7.15;64.92
12594;BME280;6362;50.208;9.182;2023-02-04T11:12:34;101766.88;;;7.12;62.89
12594;BME280;6362;50.208;9.182;2023-02-04T11:15:00;101765.91;;;6.86;64.61
12594;BME280;6362;50.208;9.182;2023-02-04T11:17:30;101767.22;;;6.75;65.23
12594;BME280;6362;50.208;9.182;2023-02-04T11:19:56;101764.41;;;6.69;65.86
12594;BME280;6362;50.208;9.182;2023-02-04T11:22:42;101776.09;;;6.59;65.99
12594;BME280;6362;50.208;9.182;2023-02-04T11:25:33;101772.91;;;6.44;65.66
12594;BME280;6362;50.208;9.182;2023-02-04T11:28:00;101775.03;;;6.54;64.32
12594;BME280;6362;50.208;9.182;2023-02-04T11:30:37;101778.91;;;6.43;65.42
12594;BME280;6362;50.208;9.182;2023-02-04T11:33:04;101771.94;;;6.40;65.84
12594;BME280;6362;50.208;9.182;2023-02-04T11:35:31;101771.53;;;6.52;64.66
12594;BME280;6362;50.208;9.182;2023-02-04T11:37:57;101774.94;;;6.51;64.04
12594;BME280;6362;50.208;9.182;2023-02-04T11:42:48;101776.63;;;6.28;63.60
12594;BME280;6362;50.208;9.182;2023-02-04T11:45:24;101790.44;;;6.28;64.39
12594;BME280;6362;50.208;9.182;2023-02-04T11:47:50;101787.00;;;6.29;64.61
12594;BME280;6362;50.208;9.182;2023-02-04T11:52:44;101793.97;;;6.53;63.49
12594;BME280;6362;50.208;9.182;2023-02-04T11:55:10;101798.19;;;6.51;63.33
12594;BME280;6362;50.208;9.182;2023-02-04T11:57:40;101793.53;;;6.42;65.23
12594;BME280;6362;50.208;9.182;2023-02-04T12:00:18;101782.38;;;6.43;64.26
12594;BME280;6362;50.208;9.182;2023-02-04T12:02:48;101789.38;;;6.46;64.12
12594;BME280;6362;50.208;9.182;2023-02-04T12:05:16;101781.63;;;6.46;63.41
12594;BME280;6362;50.208;9.182;2023-02-04T12:07:42;101790.38;;;6.49;63.63
12594;BME280;6362;50.208;9.182;2023-02-04T12:10:23;101797.25;;;6.49;62.95
12594;BME280;6362;50.208;9.182;2023-02-04T12:12:54;101795.47;;;6.48;63.80
12594;BME280;6362;50.208;9.182;2023-02-04T12:15:33;101795.38;;;6.45;63.76
12594;BME280;6362;50.208;9.182;2023-02-04T12:18:09;101799.31;;;6.57;62.59
12594;BME280;6362;50.208;9.182;2023-02-04T12:20:38;101800.84;;;6.52;63.64
12594;BME280;6362;50.208;9.182;2023-02-04T12:23:04;101794.25;;;6.60;63.63
12594;BME280;6362;50.208;9.182;2023-02-04T12:25:30;101796.59;;;6.77;62.63
12594;BME280;6362;50.208;9.182;2023-02-04T12:27:55;101802.13;;;6.86;61.77
12594;BME280;6362;50.208;9.182;2023-02-04T12:30:22;101796.47;;;6.96;61.25
12594;BME280;6362;50.208;9.182;2023-02-04T12:32:48;101794.25;;;7.05;60.90
12594;BME280;6362;50.208;9.182;2023-02-04T12:35:14;101795.34;;;7.12;58.30
12594;BME280;6362;50.208;9.182;2023-02-04T12:37:40;101794.28;;;7.31;58.20
12594;BME280;6362;50.208;9.182;2023-02-04T12:40:06;101792.13;;;7.19;59.15
12594;BME280;6362;50.208;9.182;2023-02-04T12:42:32;101800.16;;;7.27;57.77
12594;BME280;6362;50.208;9.182;2023-02-04T12:44:57;101800.41;;;7.33;57.48
12594;BME280;6362;50.208;9.182;2023-02-04T12:47:23;101790.72;;;7.53;56.53
12594;BME280;6362;50.208;9.182;2023-02-04T12:49:49;101800.47;;;7.60;56.04
12594;BME280;6362;50.208;9.182;2023-02-04T12:52:14;101801.22;;;7.56;55.68
12594;BME280;6362;50.208;9.182;2023-02-04T12:54:39;101804.59;;;7.55;56.43
12594;BME280;6362;50.208;9.182;2023-02-04T12:57:05;101804.19;;;7.66;55.47
12594;BME280;6362;50.208;9.182;2023-02-04T12:59:30;101796.13;;;7.59;55.95
12594;BME280;6362;50.208;9.182;2023-02-04T13:01:57;101813.81;;;7.47;56.38
12594;BME280;6362;50.208;9.182;2023-02-04T13:04:22;101809.34;;;7.66;56.53
12594;BME280;6362;50.208;9.182;2023-02-04T13:06:48;101808.97;;;8.07;56.05
12594;BME280;6362;50.208;9.182;2023-02-04T13:09:13;101805.28;;;8.27;55.42
12594;BME280;6362;50.208;9.182;2023-02-04T13:11:39;101802.72;;;8.54;55.36
12594;BME280;6362;50.208;9.182;2023-02-04T13:14:04;101805.88;;;8.44;54.65
12594;BME280;6362;50.208;9.182;2023-02-04T13:16:30;101805.78;;;8.41;54.55
12594;BME280;6362;50.208;9.182;2023-02-04T13:18:55;101797.09;;;8.39;53.61
12594;BME280;6362;50.208;9.182;2023-02-04T13:21:21;101801.88;;;8.01;53.66